sensor_id;sensor_type;location;lat;lon;timestamp;temperature;humidity
44990;DHT22;30723;51.206;3.326;2022-12-07T00:01:08;5.80;99.90
44990;DHT22;30723;51.206;3.326;2022-12-07T00:03:34;5.90;99.90
44990;DHT22;30723;51.206;3.326;2022-12-07T00:06:01;5.80;99.90
44990;DHT22;30723;51.206;3.326;2022-12-07T00:08:27;5.70;99.90
44990;DHT22;30723;51.206;3.326;2022-12-07T00:10:53;5.70;99.90
44990;DHT22;30723;51.206;3.326;2022-12-07T00:13:18;5.60;99.90
44990;DHT22;30723;51.206;3.326;2022-12-07T00:15:45;5.60;99.90
44990;DHT22;30723;51.206;3.326;2022-12-07T00:18:10;5.60;99.90
44990;DHT22;30723;51.206;3.326;2022-12-07T00:20:36;5.60;99.90
44990;DHT22;30723;51.206;3.326;2022-12-07T00:23:02;5.60;99.90
44990;DHT22;30723;51.206;3.326;2022-12-07T00:25:27;5.60;99.90
44990;DHT22;30723;51.206;3.326;2022-12-07T00:27:53;5.60;99.90
44990;DHT22;30723;51.206;3.326;2022-12-07T00:30:23;5.60;99.90
44990;DHT22;30723;51.206;3.326;2022-12-07T00:32:49;5.60;99.90
44990;DHT22;30723;51.206;3.326;2022-12-07T00:35:15;5.60;99.90
44990;DHT22;30723;51.206;3.326;2022-12-07T00:37:41;5.70;99.90
44990;DHT22;30723;51.206;3.326;2022-12-07T00:40:07;5.70;99.90
44990;DHT22;30723;51.206;3.326;2022-12-07T00:42:33;5.70;99.90
44990;DHT22;30723;51.206;3.326;2022-12-07T00:44:58;5.80;99.90
44990;DHT22;30723;51.206;3.326;2022-12-07T00:47:24;5.80;99.90
44990;DHT22;30723;51.206;3.326;2022-12-07T00:49:50;5.90;99.90
44990;DHT22;30723;51.206;3.326;2022-12-07T00:52:16;5.90;99.90
44990;DHT22;30723;51.206;3.326;2022-12-07T00:54:41;5.90;99.90
44990;DHT22;30723;51.206;3.326;2022-12-07T00:57:07;6.00;99.90
44990;DHT22;30723;51.206;3.326;2022-12-07T00:59:33;6.10;99.90
44990;DHT22;30723;51.206;3.326;2022-12-07T01:01:59;6.20;99.90
44990;DHT22;30723;51.206;3.326;2022-12-07T01:04:24;6.30;99.90
44990;DHT22;30723;51.206;3.326;2022-12-07T01:06:50;6.20;99.90
44990;DHT22;30723;51.206;3.326;2022-12-07T01:09:16;6.20;99.90
44990;DHT22;30723;51.206;3.326;2022-12-07T01:11:41;6.30;99.90
44990;DHT22;30723;51.206;3.326;2022-12-07T01:14:08;6.40;99.90
44990;DHT22;30723;51.206;3.326;2022-12-07T01:16:34;6.40;99.90
44990;DHT22;30723;51.206;3.326;2022-12-07T01:19:01;6.30;99.90
44990;DHT22;30723;51.206;3.326;2022-12-07T01:21:32;6.30;99.90
44990;DHT22;30723;51.206;3.326;2022-12-07T01:24:06;6.30;99.90
44990;DHT22;30723;51.206;3.326;2022-12-07T01:26:33;6.40;99.90
44990;DHT22;30723;51.206;3.326;2022-12-07T01:28:59;6.40;99.90
44990;DHT22;30723;51.206;3.326;2022-12-07T01:31:27;6.30;99.90
44990;DHT22;30723;51.206;3.326;2022-12-07T01:33:55;6.20;99.90
44990;DHT22;30723;51.206;3.326;2022-12-07T01:36:33;6.20;99.90
44990;DHT22;30723;51.206;3.326;2022-12-07T01:39:03;6.10;99.90
44990;DHT22;30723;51.206;3.326;2022-12-07T01:41:31;6.10;99.90
44990;DHT22;30723;51.206;3.326;2022-12-07T01:46:35;6.00;99.90
44990;DHT22;30723;51.206;3.326;2022-12-07T01:49:04;5.90;99.90
44990;DHT22;30723;51.206;3.326;2022-12-07T01:51:31;5.90;99.90
44990;DHT22;30723;51.206;3.326;2022-12-07T01:53:58;5.70;99.90
44990;DHT22;30723;51.206;3.326;2022-12-07T01:56:26;5.60;99.90
44990;DHT22;30723;51.206;3.326;2022-12-07T01:58:53;5.60;99.90
44990;DHT22;30723;51.206;3.326;2022-12-07T02:01:20;5.70;99.90
44990;DHT22;30723;51.206;3.326;2022-12-07T02:03:46;5.90;99.90
44990;DHT22;30723;51.206;3.326;2022-12-07T02:06:16;6.00;99.90
44990;DHT22;30723;51.206;3.326;2022-12-07T02:08:43;6.00;99.90
44990;DHT22;30723;51.206;3.326;2022-12-07T02:11:09;6.00;99.90
44990;DHT22;30723;51.206;3.326;2022-12-07T02:13:37;5.90;99.90
44990;DHT22;30723;51.206;3.326;2022-12-07T02:16:31;5.80;99.90
44990;DHT22;30723;51.206;3.326;2022-12-07T02:19:27;5.70;99.90
44990;DHT22;30723;51.206;3.326;2022-12-07T02:22:15;5.70;99.90
44990;DHT22;30723;51.206;3.326;2022-12-07T02:27:44;5.70;99.90
44990;DHT22;30723;51.206;3.326;2022-12-07T02:30:15;5.70;99.90
44990;DHT22;30723;51.206;3.326;2022-12-07T02:35:24;5.70;99.90
44990;DHT22;30723;51.206;3.326;2022-12-07T02:40:35;5.80;99.90
44990;DHT22;30723;51.206;3.326;2022-12-07T02:45:58;6.20;99.90
44990;DHT22;30723;51.206;3.326;2022-12-07T02:48:26;6.20;99.90
44990;DHT22;30723;51.206;3.326;2022-12-07T02:50:54;6.10;99.90
44990;DHT22;30723;51.206;3.326;2022-12-07T02:53:39;6.10;99.90
44990;DHT22;30723;51.206;3.326;2022-12-07T02:59:41;6.10;99.90
44990;DHT22;30723;51.206;3.326;2022-12-07T03:05:07;6.00;99.90
44990;DHT22;30723;51.206;3.326;2022-12-07T03:10:34;5.90;99.90
44990;DHT22;30723;51.206;3.326;2022-12-07T03:18:18;6.00;99.90
44990;DHT22;30723;51.206;3.326;2022-12-07T03:20:46;5.90;99.90
44990;DHT22;30723;51.206;3.326;2022-12-07T03:23:16;6.00;99.90
44990;DHT22;30723;51.206;3.326;2022-12-07T03:25:47;5.90;99.90
44990;DHT22;30723;51.206;3.326;2022-12-07T03:28:17;5.80;99.90
44990;DHT22;30723;51.206;3.326;2022-12-07T03:30:57;5.70;99.90
44990;DHT22;30723;51.206;3.326;2022-12-07T03:33:31;5.70;99.90
44990;DHT22;30723;51.206;3.326;2022-12-07T03:36:08;5.60;99.90
44990;DHT22;30723;51.206;3.326;2022-12-07T03:38:49;5.60;99.90
44990;DHT22;30723;51.206;3.326;2022-12-07T03:41:26;5.60;99.90
44990;DHT22;30723;51.206;3.326;2022-12-07T03:43:54;5.50;99.90
44990;DHT22;30723;51.206;3.326;2022-12-07T03:46:36;5.50;99.90
44990;DHT22;30723;51.206;3.326;2022-12-07T03:49:29;5.50;99.90
44990;DHT22;30723;51.206;3.326;2022-12-07T03:52:18;5.40;99.90
44990;DHT22;30723;51.206;3.326;2022-12-07T03:55:06;5.40;99.90
44990;DHT22;30723;51.206;3.326;2022-12-07T03:57:35;5.60;99.90
44990;DHT22;30723;51.206;3.326;2022-12-07T04:00:04;5.60;99.90
44990;DHT22;30723;51.206;3.326;2022-12-07T04:02:30;5.80;99.90
44990;DHT22;30723;51.206;3.326;2022-12-07T04:04:56;6.00;99.90
44990;DHT22;30723;51.206;3.326;2022-12-07T04:07:22;6.00;99.90
44990;DHT22;30723;51.206;3.326;2022-12-07T04:09:48;6.10;99.90
44990;DHT22;30723;51.206;3.326;2022-12-07T04:12:13;6.10;99.90
44990;DHT22;30723;51.206;3.326;2022-12-07T04:14:39;6.00;99.90
44990;DHT22;30723;51.206;3.326;2022-12-07T04:17:05;5.90;99.90
44990;DHT22;30723;51.206;3.326;2022-12-07T04:19:32;5.80;99.90
44990;DHT22;30723;51.206;3.326;2022-12-07T04:22:01;5.70;99.90
44990;DHT22;30723;51.206;3.326;2022-12-07T04:24:27;5.70;99.90
44990;DHT22;30723;51.206;3.326;2022-12-07T04:26:53;5.60;99.90
44990;DHT22;30723;51.206;3.326;2022-12-07T04:29:19;5.60;99.90
44990;DHT22;30723;51.206;3.326;2022-12-07T04:31:45;5.50;99.90
44990;DHT22;30723;51.206;3.326;2022-12-07T04:34:12;5.40;99.90
44990;DHT22;30723;51.206;3.326;2022-12-07T04:36:39;5.30;99.90
44990;DHT22;30723;51.206;3.326;2022-12-07T04:39:06;5.30;99.90
44990;DHT22;30723;51.206;3.326;2022-12-07T04:41:32;5.40;99.90
44990;DHT22;30723;51.206;3.326;2022-12-07T04:44:03;5.30;99.90
44990;DHT22;30723;51.206;3.326;2022-12-07T04:46:30;5.30;99.90
44990;DHT22;30723;51.206;3.326;2022-12-07T04:48:57;5.40;99.90
44990;DHT22;30723;51.206;3.326;2022-12-07T04:51:25;5.40;99.90
44990;DHT22;30723;51.206;3.326;2022-12-07T04:53:52;5.40;99.90
44990;DHT22;30723;51.206;3.326;2022-12-07T04:56:18;5.40;99.90
44990;DHT22;30723;51.206;3.326;2022-12-07T04:58:45;5.50;99.90
44990;DHT22;30723;51.206;3.326;2022-12-07T05:01:12;5.60;99.90
44990;DHT22;30723;51.206;3.326;2022-12-07T05:03:38;5.70;99.90
44990;DHT22;30723;51.206;3.326;2022-12-07T05:06:05;5.80;99.90
44990;DHT22;30723;51.206;3.326;2022-12-07T05:08:32;5.80;99.90
44990;DHT22;30723;51.206;3.326;2022-12-07T05:10:58;5.90;99.90
44990;DHT22;30723;51.206;3.326;2022-12-07T05:13:24;5.70;99.90
44990;DHT22;30723;51.206;3.326;2022-12-07T05:15:50;5.70;99.90
44990;DHT22;30723;51.206;3.326;2022-12-07T05:18:16;5.60;99.90
44990;DHT22;30723;51.206;3.326;2022-12-07T05:20:42;5.60;99.90
44990;DHT22;30723;51.206;3.326;2022-12-07T05:23:08;5.60;99.90
44990;DHT22;30723;51.206;3.326;2022-12-07T05:25:34;5.60;99.90
44990;DHT22;30723;51.206;3.326;2022-12-07T05:28:00;5.70;99.90
44990;DHT22;30723;51.206;3.326;2022-12-07T05:30:26;5.70;99.90
44990;DHT22;30723;51.206;3.326;2022-12-07T05:32:52;5.80;99.90
44990;DHT22;30723;51.206;3.326;2022-12-07T05:35:18;5.70;99.90
44990;DHT22;30723;51.206;3.326;2022-12-07T05:37:44;5.60;99.90
44990;DHT22;30723;51.206;3.326;2022-12-07T05:40:12;5.60;99.90
44990;DHT22;30723;51.206;3.326;2022-12-07T05:42:39;5.70;99.90
44990;DHT22;30723;51.206;3.326;2022-12-07T05:45:05;5.70;99.90
44990;DHT22;30723;51.206;3.326;2022-12-07T05:47:31;5.70;99.90
44990;DHT22;30723;51.206;3.326;2022-12-07T05:49:57;5.60;99.90
44990;DHT22;30723;51.206;3.326;2022-12-07T05:52:23;5.60;99.90
44990;DHT22;30723;51.206;3.326;2022-12-07T05:54:49;5.70;99.90
44990;DHT22;30723;51.206;3.326;2022-12-07T05:57:15;5.60;99.90
44990;DHT22;30723;51.206;3.326;2022-12-07T05:59:41;5.50;99.90
44990;DHT22;30723;51.206;3.326;2022-12-07T06:02:14;5.70;99.90
44990;DHT22;30723;51.206;3.326;2022-12-07T06:04:42;5.80;99.90
44990;DHT22;30723;51.206;3.326;2022-12-07T06:07:09;5.80;99.90
44990;DHT22;30723;51.206;3.326;2022-12-07T06:09:35;5.80;99.90
44990;DHT22;30723;51.206;3.326;2022-12-07T06:12:02;5.90;99.90
44990;DHT22;30723;51.206;3.326;2022-12-07T06:14:47;5.80;99.90
44990;DHT22;30723;51.206;3.326;2022-12-07T06:17:13;5.80;99.90
44990;DHT22;30723;51.206;3.326;2022-12-07T06:19:40;5.60;99.90
44990;DHT22;30723;51.206;3.326;2022-12-07T06:22:06;5.70;99.90
44990;DHT22;30723;51.206;3.326;2022-12-07T06:24:32;5.60;99.90
44990;DHT22;30723;51.206;3.326;2022-12-07T06:26:59;5.70;99.90
44990;DHT22;30723;51.206;3.326;2022-12-07T06:29:24;5.80;99.90
44990;DHT22;30723;51.206;3.326;2022-12-07T06:31:50;5.70;99.90
44990;DHT22;30723;51.206;3.326;2022-12-07T06:34:20;5.70;99.90
44990;DHT22;30723;51.206;3.326;2022-12-07T06:36:48;5.70;99.90
44990;DHT22;30723;51.206;3.326;2022-12-07T06:39:21;5.50;99.90
44990;DHT22;30723;51.206;3.326;2022-12-07T06:41:47;5.40;99.90
44990;DHT22;30723;51.206;3.326;2022-12-07T06:44:13;5.40;99.90
44990;DHT22;30723;51.206;3.326;2022-12-07T06:46:39;5.40;99.90
44990;DHT22;30723;51.206;3.326;2022-12-07T06:49:05;5.30;99.90
44990;DHT22;30723;51.206;3.326;2022-12-07T06:51:32;5.20;99.90
44990;DHT22;30723;51.206;3.326;2022-12-07T06:53:58;5.20;99.90
44990;DHT22;30723;51.206;3.326;2022-12-07T06:56:24;5.20;99.90
44990;DHT22;30723;51.206;3.326;2022-12-07T06:58:50;5.10;99.90
44990;DHT22;30723;51.206;3.326;2022-12-07T07:01:17;5.20;99.90
44990;DHT22;30723;51.206;3.326;2022-12-07T07:03:45;5.10;99.90
44990;DHT22;30723;51.206;3.326;2022-12-07T07:06:12;5.10;99.90
44990;DHT22;30723;51.206;3.326;2022-12-07T07:08:38;5.20;99.90
44990;DHT22;30723;51.206;3.326;2022-12-07T07:11:05;5.30;99.90
44990;DHT22;30723;51.206;3.326;2022-12-07T07:13:31;5.30;99.90
44990;DHT22;30723;51.206;3.326;2022-12-07T07:15:57;5.30;99.90
44990;DHT22;30723;51.206;3.326;2022-12-07T07:18:24;5.40;99.90
44990;DHT22;30723;51.206;3.326;2022-12-07T07:20:53;5.50;99.90
44990;DHT22;30723;51.206;3.326;2022-12-07T07:23:19;5.60;99.90
44990;DHT22;30723;51.206;3.326;2022-12-07T07:25:45;5.50;99.90
44990;DHT22;30723;51.206;3.326;2022-12-07T07:28:11;5.60;99.90
44990;DHT22;30723;51.206;3.326;2022-12-07T07:30:37;5.60;99.90
44990;DHT22;30723;51.206;3.326;2022-12-07T07:33:04;5.70;99.90
44990;DHT22;30723;51.206;3.326;2022-12-07T07:35:32;5.80;99.90
44990;DHT22;30723;51.206;3.326;2022-12-07T07:37:58;5.90;99.90
44990;DHT22;30723;51.206;3.326;2022-12-07T07:40:24;5.80;99.90
44990;DHT22;30723;51.206;3.326;2022-12-07T07:42:51;5.80;99.90
44990;DHT22;30723;51.206;3.326;2022-12-07T07:45:22;5.70;99.90
44990;DHT22;30723;51.206;3.326;2022-12-07T07:47:48;5.70;99.90
44990;DHT22;30723;51.206;3.326;2022-12-07T07:50:14;5.60;99.90
44990;DHT22;30723;51.206;3.326;2022-12-07T07:52:41;5.60;99.90
44990;DHT22;30723;51.206;3.326;2022-12-07T07:55:07;5.50;99.90
44990;DHT22;30723;51.206;3.326;2022-12-07T07:57:37;5.60;99.90
44990;DHT22;30723;51.206;3.326;2022-12-07T08:00:08;5.60;99.90
44990;DHT22;30723;51.206;3.326;2022-12-07T08:02:34;5.60;99.90
44990;DHT22;30723;51.206;3.326;2022-12-07T08:05:00;5.70;99.90
44990;DHT22;30723;51.206;3.326;2022-12-07T08:07:27;5.70;99.90
44990;DHT22;30723;51.206;3.326;2022-12-07T08:09:53;5.80;99.90
44990;DHT22;30723;51.206;3.326;2022-12-07T08:12:19;5.80;99.90
44990;DHT22;30723;51.206;3.326;2022-12-07T08:14:45;5.90;99.90
44990;DHT22;30723;51.206;3.326;2022-12-07T08:17:11;6.00;99.90
44990;DHT22;30723;51.206;3.326;2022-12-07T08:19:38;6.10;99.90
44990;DHT22;30723;51.206;3.326;2022-12-07T08:22:04;6.10;99.90
44990;DHT22;30723;51.206;3.326;2022-12-07T08:24:29;6.10;99.90
44990;DHT22;30723;51.206;3.326;2022-12-07T08:26:55;6.10;99.90
44990;DHT22;30723;51.206;3.326;2022-12-07T08:29:21;6.10;99.90
44990;DHT22;30723;51.206;3.326;2022-12-07T08:31:47;6.10;99.90
44990;DHT22;30723;51.206;3.326;2022-12-07T08:34:13;6.10;99.90
44990;DHT22;30723;51.206;3.326;2022-12-07T08:36:39;6.00;99.90
44990;DHT22;30723;51.206;3.326;2022-12-07T08:39:05;6.00;99.90
44990;DHT22;30723;51.206;3.326;2022-12-07T08:41:31;5.90;99.90
44990;DHT22;30723;51.206;3.326;2022-12-07T08:43:57;6.00;99.90
44990;DHT22;30723;51.206;3.326;2022-12-07T08:46:51;6.10;99.90
44990;DHT22;30723;51.206;3.326;2022-12-07T08:49:20;6.20;99.90
44990;DHT22;30723;51.206;3.326;2022-12-07T08:51:48;6.20;99.90
44990;DHT22;30723;51.206;3.326;2022-12-07T08:54:15;6.10;99.90
44990;DHT22;30723;51.206;3.326;2022-12-07T08:56:43;6.20;99.90
44990;DHT22;30723;51.206;3.326;2022-12-07T08:59:09;6.20;99.90
44990;DHT22;30723;51.206;3.326;2022-12-07T09:01:37;6.20;99.90
44990;DHT22;30723;51.206;3.326;2022-12-07T09:04:02;6.10;99.90
44990;DHT22;30723;51.206;3.326;2022-12-07T09:06:28;6.00;99.90
44990;DHT22;30723;51.206;3.326;2022-12-07T09:08:58;5.90;99.90
44990;DHT22;30723;51.206;3.326;2022-12-07T09:11:24;5.90;99.90
44990;DHT22;30723;51.206;3.326;2022-12-07T09:13:50;5.80;99.90
44990;DHT22;30723;51.206;3.326;2022-12-07T09:16:16;5.80;99.90
44990;DHT22;30723;51.206;3.326;2022-12-07T09:18:42;5.80;99.90
44990;DHT22;30723;51.206;3.326;2022-12-07T09:21:07;6.10;99.90
44990;DHT22;30723;51.206;3.326;2022-12-07T09:23:33;6.40;99.90
44990;DHT22;30723;51.206;3.326;2022-12-07T09:26:00;6.60;99.90
44990;DHT22;30723;51.206;3.326;2022-12-07T09:28:26;6.80;99.90
44990;DHT22;30723;51.206;3.326;2022-12-07T09:30:52;6.80;99.90
44990;DHT22;30723;51.206;3.326;2022-12-07T09:33:18;6.90;99.90
44990;DHT22;30723;51.206;3.326;2022-12-07T09:35:50;6.90;99.90
44990;DHT22;30723;51.206;3.326;2022-12-07T09:38:18;6.90;99.90
44990;DHT22;30723;51.206;3.326;2022-12-07T09:40:44;7.00;99.90
44990;DHT22;30723;51.206;3.326;2022-12-07T09:43:19;7.10;99.90
44990;DHT22;30723;51.206;3.326;2022-12-07T09:45:47;7.20;99.90
44990;DHT22;30723;51.206;3.326;2022-12-07T09:48:22;7.20;99.90
44990;DHT22;30723;51.206;3.326;2022-12-07T09:50:50;7.10;99.90
44990;DHT22;30723;51.206;3.326;2022-12-07T09:53:26;7.10;99.90
44990;DHT22;30723;51.206;3.326;2022-12-07T09:55:53;7.20;99.90
44990;DHT22;30723;51.206;3.326;2022-12-07T09:58:23;7.30;99.90
44990;DHT22;30723;51.206;3.326;2022-12-07T10:01:13;7.50;99.90
44990;DHT22;30723;51.206;3.326;2022-12-07T10:03:43;7.60;99.90
44990;DHT22;30723;51.206;3.326;2022-12-07T10:06:11;7.60;99.90
44990;DHT22;30723;51.206;3.326;2022-12-07T10:08:38;7.60;99.90
44990;DHT22;30723;51.206;3.326;2022-12-07T10:11:03;7.60;99.90
44990;DHT22;30723;51.206;3.326;2022-12-07T10:13:38;7.60;99.90
44990;DHT22;30723;51.206;3.326;2022-12-07T10:16:04;7.70;99.90
44990;DHT22;30723;51.206;3.326;2022-12-07T10:18:33;7.80;99.90
44990;DHT22;30723;51.206;3.326;2022-12-07T10:21:17;7.80;99.90
44990;DHT22;30723;51.206;3.326;2022-12-07T10:29:17;7.80;99.90
44990;DHT22;30723;51.206;3.326;2022-12-07T10:31:45;7.80;99.90
44990;DHT22;30723;51.206;3.326;2022-12-07T10:34:54;7.70;99.90
44990;DHT22;30723;51.206;3.326;2022-12-07T10:42:28;8.90;99.90
44990;DHT22;30723;51.206;3.326;2022-12-07T10:45:09;10.60;99.90
44990;DHT22;30723;51.206;3.326;2022-12-07T10:53:40;16.50;99.90
44990;DHT22;30723;51.206;3.326;2022-12-07T11:01:33;15.90;99.90
44990;DHT22;30723;51.206;3.326;2022-12-07T11:07:18;13.70;99.90
44990;DHT22;30723;51.206;3.326;2022-12-07T11:24:10;11.80;99.90
44990;DHT22;30723;51.206;3.326;2022-12-07T11:35:36;9.80;99.90
44990;DHT22;30723;51.206;3.326;2022-12-07T11:37:37;9.60;99.90
44990;DHT22;30723;51.206;3.326;2022-12-07T11:42:59;9.10;99.90
44990;DHT22;30723;51.206;3.326;2022-12-07T11:45:31;8.90;99.90
44990;DHT22;30723;51.206;3.326;2022-12-07T11:48:04;8.70;99.90
44990;DHT22;30723;51.206;3.326;2022-12-07T11:56:11;9.00;99.90
44990;DHT22;30723;51.206;3.326;2022-12-07T12:07:14;11.20;99.90
44990;DHT22;30723;51.206;3.326;2022-12-07T12:18:14;12.70;99.90
44990;DHT22;30723;51.206;3.326;2022-12-07T12:20:50;12.70;99.90
44990;DHT22;30723;51.206;3.326;2022-12-07T12:23:21;12.40;99.90
44990;DHT22;30723;51.206;3.326;2022-12-07T12:25:50;11.90;99.90
44990;DHT22;30723;51.206;3.326;2022-12-07T12:28:30;11.00;99.90
44990;DHT22;30723;51.206;3.326;2022-12-07T12:31:14;10.60;99.90
44990;DHT22;30723;51.206;3.326;2022-12-07T12:33:57;10.30;99.90
44990;DHT22;30723;51.206;3.326;2022-12-07T12:39:10;10.20;99.90
44990;DHT22;30723;51.206;3.326;2022-12-07T12:46:55;10.90;99.90
44990;DHT22;30723;51.206;3.326;2022-12-07T12:59:36;10.30;99.90
44990;DHT22;30723;51.206;3.326;2022-12-07T13:02:26;10.00;99.90
44990;DHT22;30723;51.206;3.326;2022-12-07T13:05:02;9.90;99.90
44990;DHT22;30723;51.206;3.326;2022-12-07T13:07:53;9.70;99.90
44990;DHT22;30723;51.206;3.326;2022-12-07T13:13:04;9.80;99.90
44990;DHT22;30723;51.206;3.326;2022-12-07T13:15:43;9.70;99.90
44990;DHT22;30723;51.206;3.326;2022-12-07T13:21:01;9.50;99.90
44990;DHT22;30723;51.206;3.326;2022-12-07T13:26:15;9.20;99.90
44990;DHT22;30723;51.206;3.326;2022-12-07T13:28:44;9.10;99.90
44990;DHT22;30723;51.206;3.326;2022-12-07T13:33:47;8.80;99.90
44990;DHT22;30723;51.206;3.326;2022-12-07T13:36:51;8.60;99.90
44990;DHT22;30723;51.206;3.326;2022-12-07T13:39:22;8.50;99.90
44990;DHT22;30723;51.206;3.326;2022-12-07T13:41:58;8.30;99.90
44990;DHT22;30723;51.206;3.326;2022-12-07T13:44:26;8.20;99.90
44990;DHT22;30723;51.206;3.326;2022-12-07T13:49:31;8.20;99.90
44990;DHT22;30723;51.206;3.326;2022-12-07T13:52:16;8.20;99.90
44990;DHT22;30723;51.206;3.326;2022-12-07T13:54:47;8.20;99.90
44990;DHT22;30723;51.206;3.326;2022-12-07T13:57:15;8.20;99.90
44990;DHT22;30723;51.206;3.326;2022-12-07T13:59:42;8.30;99.90
44990;DHT22;30723;51.206;3.326;2022-12-07T14:02:29;8.30;99.90
44990;DHT22;30723;51.206;3.326;2022-12-07T14:07:33;7.90;99.90
44990;DHT22;30723;51.206;3.326;2022-12-07T14:10:01;7.80;99.90
44990;DHT22;30723;51.206;3.326;2022-12-07T14:12:29;7.50;99.90
44990;DHT22;30723;51.206;3.326;2022-12-07T14:14:56;7.50;99.90
44990;DHT22;30723;51.206;3.326;2022-12-07T14:17:27;7.40;99.90
44990;DHT22;30723;51.206;3.326;2022-12-07T14:22:35;7.40;99.90
44990;DHT22;30723;51.206;3.326;2022-12-07T14:27:39;7.50;99.90
44990;DHT22;30723;51.206;3.326;2022-12-07T14:30:05;7.60;99.90
44990;DHT22;30723;51.206;3.326;2022-12-07T14:32:32;7.60;99.90
44990;DHT22;30723;51.206;3.326;2022-12-07T14:37:33;7.70;99.90
44990;DHT22;30723;51.206;3.326;2022-12-07T14:39:59;7.70;99.90
44990;DHT22;30723;51.206;3.326;2022-12-07T14:42:27;7.80;99.90
44990;DHT22;30723;51.206;3.326;2022-12-07T14:44:55;7.80;99.90
44990;DHT22;30723;51.206;3.326;2022-12-07T14:47:21;7.70;99.90
44990;DHT22;30723;51.206;3.326;2022-12-07T14:49:47;7.60;99.90
44990;DHT22;30723;51.206;3.326;2022-12-07T14:52:21;7.60;99.90
44990;DHT22;30723;51.206;3.326;2022-12-07T14:54:49;7.60;99.90
44990;DHT22;30723;51.206;3.326;2022-12-07T14:57:14;7.60;99.90
44990;DHT22;30723;51.206;3.326;2022-12-07T14:59:40;7.60;99.90
44990;DHT22;30723;51.206;3.326;2022-12-07T15:02:08;7.50;99.90
44990;DHT22;30723;51.206;3.326;2022-12-07T15:04:34;7.30;99.90
44990;DHT22;30723;51.206;3.326;2022-12-07T15:07:05;7.40;99.90
44990;DHT22;30723;51.206;3.326;2022-12-07T15:09:31;7.30;99.90
44990;DHT22;30723;51.206;3.326;2022-12-07T15:11:57;7.20;99.90
44990;DHT22;30723;51.206;3.326;2022-12-07T15:14:23;7.10;99.90
44990;DHT22;30723;51.206;3.326;2022-12-07T15:16:48;7.10;99.90
44990;DHT22;30723;51.206;3.326;2022-12-07T15:19:19;7.10;99.90
44990;DHT22;30723;51.206;3.326;2022-12-07T15:21:45;6.90;99.90
44990;DHT22;30723;51.206;3.326;2022-12-07T15:24:12;6.90;99.90
44990;DHT22;30723;51.206;3.326;2022-12-07T15:26:38;6.90;99.90
44990;DHT22;30723;51.206;3.326;2022-12-07T15:29:05;6.90;99.90
44990;DHT22;30723;51.206;3.326;2022-12-07T15:31:32;6.90;99.90
44990;DHT22;30723;51.206;3.326;2022-12-07T15:33:58;6.90;99.90
44990;DHT22;30723;51.206;3.326;2022-12-07T15:36:26;6.80;99.90
44990;DHT22;30723;51.206;3.326;2022-12-07T15:38:53;6.90;99.90
44990;DHT22;30723;51.206;3.326;2022-12-07T15:41:19;6.80;99.90
44990;DHT22;30723;51.206;3.326;2022-12-07T15:43:45;6.70;99.90
44990;DHT22;30723;51.206;3.326;2022-12-07T15:46:35;6.70;99.90
44990;DHT22;30723;51.206;3.326;2022-12-07T15:49:01;6.70;99.90
44990;DHT22;30723;51.206;3.326;2022-12-07T15:51:27;6.60;99.90
44990;DHT22;30723;51.206;3.326;2022-12-07T15:53:53;6.60;99.90
44990;DHT22;30723;51.206;3.326;2022-12-07T15:56:19;6.60;99.90
44990;DHT22;30723;51.206;3.326;2022-12-07T15:58:44;6.60;99.90
44990;DHT22;30723;51.206;3.326;2022-12-07T16:01:15;6.50;99.90
44990;DHT22;30723;51.206;3.326;2022-12-07T16:03:41;6.50;99.90
44990;DHT22;30723;51.206;3.326;2022-12-07T16:06:07;6.50;99.90
44990;DHT22;30723;51.206;3.326;2022-12-07T16:08:33;6.50;99.90
44990;DHT22;30723;51.206;3.326;2022-12-07T16:10:59;6.50;99.90
44990;DHT22;30723;51.206;3.326;2022-12-07T16:13:25;6.50;99.90
44990;DHT22;30723;51.206;3.326;2022-12-07T16:15:51;6.50;99.90
44990;DHT22;30723;51.206;3.326;2022-12-07T16:18:16;6.50;99.90
44990;DHT22;30723;51.206;3.326;2022-12-07T16:20:42;6.50;99.90
44990;DHT22;30723;51.206;3.326;2022-12-07T16:23:08;6.40;99.90
44990;DHT22;30723;51.206;3.326;2022-12-07T16:25:34;6.30;99.90
44990;DHT22;30723;51.206;3.326;2022-12-07T16:27:59;6.30;99.90
44990;DHT22;30723;51.206;3.326;2022-12-07T16:30:25;6.20;99.90
44990;DHT22;30723;51.206;3.326;2022-12-07T16:32:51;6.10;99.90
44990;DHT22;30723;51.206;3.326;2022-12-07T16:35:17;6.10;99.90
44990;DHT22;30723;51.206;3.326;2022-12-07T16:37:43;6.10;99.90
44990;DHT22;30723;51.206;3.326;2022-12-07T16:40:09;6.00;99.90
44990;DHT22;30723;51.206;3.326;2022-12-07T16:42:35;6.10;99.90
44990;DHT22;30723;51.206;3.326;2022-12-07T16:45:02;6.10;99.90
44990;DHT22;30723;51.206;3.326;2022-12-07T16:47:28;6.10;99.90
44990;DHT22;30723;51.206;3.326;2022-12-07T16:49:54;6.10;99.90
44990;DHT22;30723;51.206;3.326;2022-12-07T16:52:20;6.10;99.90
44990;DHT22;30723;51.206;3.326;2022-12-07T16:54:48;6.10;99.90
44990;DHT22;30723;51.206;3.326;2022-12-07T16:57:14;6.10;99.90
44990;DHT22;30723;51.206;3.326;2022-12-07T16:59:40;6.10;99.90
44990;DHT22;30723;51.206;3.326;2022-12-07T17:02:06;6.10;99.90
44990;DHT22;30723;51.206;3.326;2022-12-07T17:04:33;6.10;99.90
44990;DHT22;30723;51.206;3.326;2022-12-07T17:06:59;6.20;99.90
44990;DHT22;30723;51.206;3.326;2022-12-07T17:09:25;6.20;99.90
44990;DHT22;30723;51.206;3.326;2022-12-07T17:11:50;6.20;99.90
44990;DHT22;30723;51.206;3.326;2022-12-07T17:14:16;6.20;99.90
44990;DHT22;30723;51.206;3.326;2022-12-07T17:17:01;6.20;99.90
44990;DHT22;30723;51.206;3.326;2022-12-07T17:19:26;6.30;99.90
44990;DHT22;30723;51.206;3.326;2022-12-07T17:21:52;6.40;99.90
44990;DHT22;30723;51.206;3.326;2022-12-07T17:24:18;6.40;99.90
44990;DHT22;30723;51.206;3.326;2022-12-07T17:26:45;6.40;99.90
44990;DHT22;30723;51.206;3.326;2022-12-07T17:29:13;6.40;99.90
44990;DHT22;30723;51.206;3.326;2022-12-07T17:31:39;6.40;99.90
44990;DHT22;30723;51.206;3.326;2022-12-07T17:34:10;6.30;99.90
44990;DHT22;30723;51.206;3.326;2022-12-07T17:36:37;6.40;99.90
44990;DHT22;30723;51.206;3.326;2022-12-07T17:39:10;6.40;99.90
44990;DHT22;30723;51.206;3.326;2022-12-07T17:41:37;6.30;99.90
44990;DHT22;30723;51.206;3.326;2022-12-07T17:44:22;6.30;99.90
44990;DHT22;30723;51.206;3.326;2022-12-07T17:46:50;6.30;99.90
44990;DHT22;30723;51.206;3.326;2022-12-07T17:49:20;6.30;99.90
44990;DHT22;30723;51.206;3.326;2022-12-07T17:51:45;6.20;99.90
44990;DHT22;30723;51.206;3.326;2022-12-07T17:54:30;6.30;99.90
44990;DHT22;30723;51.206;3.326;2022-12-07T17:56:56;6.30;99.90
44990;DHT22;30723;51.206;3.326;2022-12-07T17:59:22;6.40;99.90
44990;DHT22;30723;51.206;3.326;2022-12-07T18:01:47;6.40;99.90
44990;DHT22;30723;51.206;3.326;2022-12-07T18:04:13;6.30;99.90
44990;DHT22;30723;51.206;3.326;2022-12-07T18:06:39;6.40;99.90
44990;DHT22;30723;51.206;3.326;2022-12-07T18:09:05;6.50;99.90
44990;DHT22;30723;51.206;3.326;2022-12-07T18:11:32;6.50;99.90
44990;DHT22;30723;51.206;3.326;2022-12-07T18:13:58;6.50;99.90
44990;DHT22;30723;51.206;3.326;2022-12-07T18:16:25;6.50;99.90
44990;DHT22;30723;51.206;3.326;2022-12-07T18:18:52;6.60;99.90